Time;durP1;ratioP1;P1;durP2;ratioP2;P2;SDS_P1;SDS_P2;PMS_P1;PMS_P2;Temp;Humidity;BMP_temperature;BMP_pressure;BME280_temperature;BME280_humidity;BME280_pressure;Samples;Min_cycle;Max_cycle;Signal;HPM_P1;HPM_P2
2021/06/17 00:00:30;;;;;;;7.05;3.88;;;;;;;19.52;63.65;99564.10;129754;1092;113594;-70
2021/06/17 00:02:58;;;;;;;5.55;3.43;;;;;;;19.51;63.49;99562.47;129807;1093;22556;-70
2021/06/17 00:05:31;;;;;;;8.63;4.65;;;;;;;19.49;63.57;99561.96;129726;1091;113633;-70
2021/06/17 00:08:05;;;;;;;8.20;4.15;;;;;;;19.47;63.56;99563.41;129766;1093;22641;-70
2021/06/17 00:10:41;;;;;;;5.18;3.60;;;;;;;19.46;63.56;99570.06;129853;1093;23532;-70
2021/06/17 00:13:14;;;;;;;7.73;4.05;;;;;;;19.44;63.67;99573.14;129709;1093;113723;-70
2021/06/17 00:15:45;;;;;;;10.45;4.15;;;;;;;19.44;63.63;99573.14;129829;1093;22670;-66
2021/06/17 00:18:14;;;;;;;6.95;3.85;;;;;;;19.43;63.67;99572.32;129726;1092;113763;-66
2021/06/17 00:20:44;;;;;;;6.58;3.53;;;;;;;19.44;63.54;99573.14;129847;1092;22575;-66
2021/06/17 00:23:12;;;;;;;10.83;3.70;;;;;;;19.43;63.59;99572.32;129650;1092;114311;-66
2021/06/17 00:25:41;;;;;;;7.53;3.88;;;;;;;19.43;63.52;99566.80;129843;1091;22573;-66
2021/06/17 00:28:10;;;;;;;7.75;3.50;;;;;;;19.43;63.68;99566.80;129816;1093;22544;-66
2021/06/17 00:30:39;;;;;;;6.53;3.50;;;;;;;19.45;63.44;99563.72;129731;1093;113609;-66
2021/06/17 00:33:07;;;;;;;9.30;4.05;;;;;;;19.47;63.72;99568.94;129804;1092;22544;-66
2021/06/17 00:35:36;;;;;;;8.18;3.78;;;;;;;19.46;63.66;99570.06;129727;1093;113829;-66
2021/06/17 00:38:04;;;;;;;10.65;4.10;;;;;;;19.45;63.65;99562.91;129764;1092;22581;-66
2021/06/17 00:40:33;;;;;;;8.28;3.70;;;;;;;19.43;63.45;99561.27;129839;1093;22540;-66
2021/06/17 00:43:02;;;;;;;6.90;3.70;;;;;;;19.43;63.62;99566.80;129656;1093;113613;-65
2021/06/17 00:45:40;;;;;;;12.95;3.83;;;;;;;19.42;63.64;99575.39;129873;1093;22545;-69
2021/06/17 00:48:09;;;;;;;5.23;3.65;;;;;;;19.38;63.49;99580.73;129689;1093;114178;-70
2021/06/17 00:50:58;;;;;;;7.50;3.93;;;;;;;19.36;63.42;99585.75;129873;1092;23248;-70
2021/06/17 00:53:32;;;;;;;4.63;3.93;;;;;;;19.35;63.51;99595.16;129709;1093;114225;-70
2021/06/17 00:56:01;;;;;;;9.78;3.95;;;;;;;19.33;63.65;99585.58;129853;1093;23161;-70
2021/06/17 00:58:30;;;;;;;4.20;3.80;;;;;;;19.30;63.49;99584.27;129769;1093;23401;-70
2021/06/17 01:00:58;;;;;;;5.98;3.60;;;;;;;19.27;63.69;99579.36;129732;1093;113630;-70
2021/06/17 01:03:27;;;;;;;6.58;3.50;;;;;;;19.27;63.71;99581.30;129807;1093;22516;-69
2021/06/17 01:05:56;;;;;;;7.78;4.10;;;;;;;19.24;63.63;99582.73;129725;1093;113808;-69
2021/06/17 01:08:51;;;;;;;4.85;3.73;;;;;;;19.23;63.85;99585.81;129833;1092;22505;-70
2021/06/17 01:12:04;;;;;;;5.78;4.00;;;;;;;19.19;63.83;99593.90;129689;1092;113796;-70
2021/06/17 01:14:38;;;;;;;7.10;3.63;;;;;;;19.16;64.03;99593.73;129372;1096;22634;-70
2021/06/17 01:17:11;;;;;;;6.30;3.95;;;;;;;19.14;64.21;99591.28;129254;1095;114234;-68
2021/06/17 01:20:00;;;;;;;6.68;3.83;;;;;;;19.13;63.93;99597.94;129376;1095;22675;-69
2021/06/17 01:22:50;;;;;;;8.33;3.80;;;;;;;19.10;64.14;99590.27;129401;1096;22635;-70
2021/06/17 01:25:49;;;;;;;6.55;3.35;;;;;;;19.07;64.14;99588.94;129221;1095;113373;-68
2021/06/17 01:28:18;;;;;;;6.38;4.00;;;;;;;19.04;64.18;99589.56;129379;1096;22562;-68
2021/06/17 01:30:59;;;;;;;6.08;3.95;;;;;;;19.03;64.33;99576.09;129214;1097;114515;-68
2021/06/17 01:33:36;;;;;;;6.28;3.93;;;;;;;19.00;64.25;99583.05;129369;1096;22590;-68
2021/06/17 01:36:17;;;;;;;6.13;3.98;;;;;;;18.99;64.47;99580.59;129220;1095;113747;-68
2021/06/17 01:38:48;;;;;;;5.73;4.10;;;;;;;18.96;64.57;99595.02;129331;1097;22594;-68
2021/06/17 01:41:19;;;;;;;7.63;3.68;;;;;;;18.94;64.74;99600.85;129239;1097;114942;-68
2021/06/17 01:43:47;;;;;;;5.45;3.40;;;;;;;18.93;64.54;99601.16;129348;1097;22550;-68
2021/06/17 01:46:16;;;;;;;6.78;3.50;;;;;;;18.92;64.67;99608.63;129293;1095;22556;-68
2021/06/17 01:48:44;;;;;;;5.73;4.30;;;;;;;18.92;64.71;99596.76;129271;1096;114302;-70
2021/06/17 01:51:19;;;;;;;5.93;4.03;;;;;;;18.91;64.83;99598.70;129460;1093;22552;-69
2021/06/17 01:53:48;;;;;;;6.65;3.70;;;;;;;18.90;64.90;99610.09;129719;1093;113799;-69
2021/06/17 01:56:20;;;;;;;8.28;3.58;;;;;;;18.90;64.86;99624.67;129756;1093;22610;-70
2021/06/17 01:58:54;;;;;;;8.08;3.83;;;;;;;18.91;64.91;99625.50;129798;1092;23017;-69
2021/06/17 02:01:25;;;;;;;8.48;4.13;;;;;;;18.90;65.08;99610.09;129709;1093;113524;-70
2021/06/17 02:03:54;;;;;;;7.88;4.23;;;;;;;18.90;65.27;99604.56;129826;1093;22538;-70
2021/06/17 02:06:22;;;;;;;6.53;3.60;;;;;;;18.87;65.28;99613.46;129636;1093;113961;-69
2021/06/17 02:08:52;;;;;;;7.15;4.15;;;;;;;18.86;65.21;99622.88;129773;1093;23365;-69
2021/06/17 02:11:21;;;;;;;6.40;3.70;;;;;;;18.83;65.36;99629.82;129633;1093;113969;-70
2021/06/17 02:13:49;;;;;;;5.55;3.70;;;;;;;18.81;65.28;99636.77;129784;1093;22567;-70
2021/06/17 02:16:18;;;;;;;4.40;3.90;;;;;;;18.81;65.46;99647.81;129782;1093;23171;-70
2021/06/17 02:18:48;;;;;;;10.23;4.45;;;;;;;18.75;65.60;99638.84;129758;1092;113759;-68
2021/06/17 02:21:16;;;;;;;6.18;3.88;;;;;;;18.72;65.75;99647.73;129825;1093;22656;-70
2021/06/17 02:23:48;;;;;;;10.93;3.58;;;;;;;18.69;65.80;99649.17;129632;1093;114170;-70
2021/06/17 02:26:17;;;;;;;6.83;4.05;;;;;;;18.67;65.81;99640.38;129811;1093;22559;-70
2021/06/17 02:28:47;;;;;;;6.18;4.05;;;;;;;18.65;66.22;99645.38;129770;1093;22588;-70
2021/06/17 02:31:17;;;;;;;7.73;4.30;;;;;;;18.62;66.11;99636.89;129654;1093;113716;-70
2021/06/17 02:33:47;;;;;;;6.55;4.28;;;;;;;18.59;66.21;99640.30;129756;1093;22536;-70
2021/06/17 02:36:17;;;;;;;7.73;4.13;;;;;;;18.58;66.69;99645.00;129699;1093;114365;-70
2021/06/17 02:38:46;;;;;;;8.10;3.90;;;;;;;18.57;66.55;99643.33;129756;1093;22562;-70
2021/06/17 02:41:16;;;;;;;5.95;3.73;;;;;;;18.56;66.78;99635.35;129702;1093;113846;-70
2021/06/17 02:43:47;;;;;;;6.78;4.00;;;;;;;18.55;66.83;99628.20;129772;1093;22547;-70
2021/06/17 02:46:15;;;;;;;5.03;3.55;;;;;;;18.55;66.96;99633.72;129845;1093;22600;-70
2021/06/17 02:48:44;;;;;;;6.98;4.00;;;;;;;18.54;67.22;99643.12;129698;1093;113761;-70
2021/06/17 02:51:12;;;;;;;5.25;4.10;;;;;;;18.53;67.24;99639.54;129856;1092;22499;-70
2021/06/17 02:53:41;;;;;;;7.03;3.70;;;;;;;18.54;67.19;99637.59;129655;1092;113977;-70
2021/06/17 02:56:17;;;;;;;8.13;3.55;;;;;;;18.56;67.21;99636.17;129829;1092;22712;-70
2021/06/17 02:58:50;;;;;;;6.78;4.15;;;;;;;18.57;67.29;99636.98;129772;1092;22593;-70
2021/06/17 03:01:42;;;;;;;5.90;3.83;;;;;;;18.57;67.50;99632.29;129714;1092;113942;-70
2021/06/17 03:04:14;;;;;;;6.00;4.03;;;;;;;18.58;67.76;99639.48;129832;1093;22625;-70
2021/06/17 03:06:47;;;;;;;6.10;4.00;;;;;;;18.58;67.70;99633.11;129700;1093;114208;-70
2021/06/17 03:09:18;;;;;;;6.13;4.35;;;;;;;18.60;68.05;99639.98;129762;1092;22670;-70
2021/06/17 03:11:48;;;;;;;6.48;4.18;;;;;;;18.62;68.15;99651.52;129724;1092;114536;-69
2021/06/17 03:14:24;;;;;;;8.48;3.85;;;;;;;18.64;68.01;99653.97;129771;1093;22575;-69
2021/06/17 03:16:54;;;;;;;6.85;4.03;;;;;;;18.66;68.13;99658.06;129849;1093;22522;-69
2021/06/17 03:19:23;;;;;;;4.78;4.03;;;;;;;18.70;68.23;99664.61;129670;1093;114269;-69
2021/06/17 03:21:54;;;;;;;5.58;3.98;;;;;;;18.73;68.10;99656.84;129777;1093;22620;-69
2021/06/17 03:24:24;;;;;;;6.60;4.15;;;;;;;18.77;68.28;99663.36;129671;1093;114145;-69
2021/06/17 03:26:54;;;;;;;7.23;3.83;;;;;;;18.80;68.39;99659.98;129805;1093;22999;-69
2021/06/17 03:29:25;;;;;;;9.50;4.70;;;;;;;18.83;68.37;99667.66;129637;1093;113831;-69
2021/06/17 03:31:57;;;;;;;6.80;3.73;;;;;;;18.85;68.40;99676.45;129805;1093;23760;-70
2021/06/17 03:34:25;;;;;;;6.43;3.95;;;;;;;18.89;68.31;99675.53;129760;1092;22565;-70
2021/06/17 03:36:54;;;;;;;5.93;3.65;;;;;;;18.93;68.38;99671.00;129662;1093;114392;-69
2021/06/17 03:39:22;;;;;;;5.68;3.65;;;;;;;18.96;68.48;99658.53;129794;1093;22579;-69
2021/06/17 03:41:52;;;;;;;5.73;3.98;;;;;;;18.99;68.48;99678.06;129665;1093;114221;-69
2021/06/17 03:44:22;;;;;;;4.90;4.00;;;;;;;19.03;68.52;99681.03;129761;1093;22534;-69
2021/06/17 03:46:51;;;;;;;6.53;4.35;;;;;;;19.07;68.44;99673.73;129757;1093;22558;-70
2021/06/17 03:49:21;;;;;;;6.63;4.03;;;;;;;19.13;68.66;99682.73;129722;1093;113777;-69
2021/06/17 03:51:50;;;;;;;8.85;3.60;;;;;;;19.18;68.40;99680.69;129753;1093;22734;-68
2021/06/17 03:54:25;;;;;;;11.83;3.95;;;;;;;19.24;68.51;99686.89;129752;1093;113735;-70
2021/06/17 03:56:55;;;;;;;6.48;4.20;;;;;;;19.29;68.09;99684.03;129774;1093;22582;-70
2021/06/17 03:59:25;;;;;;;5.28;3.80;;;;;;;19.34;68.10;99694.94;129685;1093;114008;-69
2021/06/17 04:01:53;;;;;;;6.60;3.95;;;;;;;19.39;68.19;99698.41;129816;1093;22656;-70
2021/06/17 04:04:26;;;;;;;6.25;4.10;;;;;;;19.48;68.32;99706.77;129800;1093;23389;-69
2021/06/17 04:06:59;;;;;;;6.48;3.80;;;;;;;19.54;68.41;99701.98;129678;1092;113821;-70
2021/06/17 04:09:35;;;;;;;10.48;3.48;;;;;;;19.60;68.22;99697.98;129854;1093;23355;-70
2021/06/17 04:12:07;;;;;;;4.45;3.53;;;;;;;19.65;68.03;99693.13;129685;1093;114026;-70
2021/06/17 04:14:36;;;;;;;6.33;3.83;;;;;;;19.71;67.73;99697.41;129795;1093;22595;-69
2021/06/17 04:17:04;;;;;;;6.33;3.75;;;;;;;19.80;67.86;99704.94;129718;1093;113880;-69
2021/06/17 04:19:35;;;;;;;6.45;3.78;;;;;;;19.86;67.60;99695.39;129791;1093;22534;-70
2021/06/17 04:22:08;;;;;;;5.45;4.03;;;;;;;19.93;67.93;99690.22;129776;1092;22576;-68
2021/06/17 04:24:39;;;;;;;6.40;3.58;;;;;;;20.00;67.45;99694.19;129679;1093;114520;-69
2021/06/17 04:27:08;;;;;;;8.65;4.25;;;;;;;20.06;67.45;99692.09;126090;1093;22844;-69
2021/06/17 04:29:39;;;;;;;8.77;4.10;;;;;;;20.11;67.52;99691.97;125382;1093;114351;-69
2021/06/17 04:32:09;;;;;;;9.17;4.37;;;;;;;20.14;67.29;99685.80;125307;1093;23299;-69
2021/06/17 04:34:39;;;;;;;4.95;3.80;;;;;;;20.17;67.26;99687.13;129836;1093;22558;-70
2021/06/17 04:37:09;;;;;;;14.80;4.98;;;;;;;20.18;67.19;99695.11;129661;1093;114008;-70
2021/06/17 04:39:40;;;;;;;9.70;4.03;;;;;;;20.17;67.22;99687.95;129832;1093;22625;-70
2021/06/17 04:42:09;;;;;;;6.35;3.55;;;;;;;20.18;67.23;99692.34;129704;1093;113804;-69
2021/06/17 04:44:41;;;;;;;6.30;3.85;;;;;;;20.20;67.40;99700.33;129810;1093;22566;-70
2021/06/17 04:47:10;;;;;;;5.15;3.65;;;;;;;20.23;67.50;99697.72;129719;1093;114495;-69
2021/06/17 04:49:38;;;;;;;6.10;4.10;;;;;;;20.29;66.93;99709.48;129751;1093;23668;-70
2021/06/17 04:52:28;;;;;;;9.35;3.73;;;;;;;20.35;67.21;99702.66;129793;1093;22552;-69
2021/06/17 04:54:56;;;;;;;5.60;3.65;;;;;;;20.46;67.05;99704.07;129688;1093;114135;-70
2021/06/17 04:57:24;;;;;;;5.83;3.95;;;;;;;20.52;66.99;99705.55;125279;1093;22782;-69
2021/06/17 04:59:53;;;;;;;7.18;4.10;;;;;;;20.59;67.24;99702.33;124878;1093;114169;-69
2021/06/17 05:02:21;;;;;;;6.70;4.30;;;;;;;20.66;66.81;99710.97;124998;1093;25347;-69
2021/06/17 05:04:50;;;;;;;7.90;3.87;;;;;;;20.72;66.84;99718.83;124952;1092;22863;-68
2021/06/17 05:12:34;;;;;;;5.18;3.95;;;;;;;20.94;66.48;99734.52;125109;1093;114020;-68
2021/06/17 05:15:06;;;;;;;5.05;3.70;;;;;;;21.04;66.12;99745.33;129716;1093;24154;-69
2021/06/17 05:17:35;;;;;;;5.40;4.18;;;;;;;21.12;65.62;99741.75;129759;1093;114288;-69
2021/06/17 05:20:07;;;;;;;7.15;4.30;;;;;;;21.17;65.39;99736.06;129817;1093;23744;-70
2021/06/17 05:22:35;;;;;;;7.65;3.83;;;;;;;21.23;65.11;99733.16;129805;1092;22536;-70
2021/06/17 05:25:04;;;;;;;8.60;4.73;;;;;;;21.30;65.06;99748.18;129702;1093;113783;-70
2021/06/17 05:27:38;;;;;;;5.65;4.25;;;;;;;21.42;64.82;99753.91;129849;1093;22540;-70
2021/06/17 05:30:07;;;;;;;11.10;3.88;;;;;;;21.53;64.67;99751.62;129710;1092;113913;-70
2021/06/17 05:32:36;;;;;;;5.03;4.35;;;;;;;21.61;64.22;99759.14;129845;1093;22568;-69
2021/06/17 05:35:05;;;;;;;9.70;4.33;;;;;;;21.68;63.89;99761.41;129674;1093;113977;-70
2021/06/17 05:37:33;;;;;;;8.38;4.30;;;;;;;21.74;63.70;99762.90;129831;1093;22536;-70
2021/06/17 05:40:02;;;;;;;8.95;4.08;;;;;;;21.76;63.73;99749.53;129790;1092;22569;-70
2021/06/17 05:42:30;;;;;;;7.05;3.90;;;;;;;21.80;63.74;99762.39;129762;1093;113793;-69
2021/06/17 05:44:59;;;;;;;6.75;4.55;;;;;;;21.81;63.06;99752.93;129775;1093;22578;-70
2021/06/17 05:47:27;;;;;;;5.80;4.20;;;;;;;21.80;62.88;99756.84;129720;1093;113997;-69
2021/06/17 05:49:56;;;;;;;6.10;4.00;;;;;;;21.77;63.29;99770.58;129778;1093;22506;-69
2021/06/17 05:52:24;;;;;;;6.85;4.65;;;;;;;21.76;63.47;99769.76;129817;1092;23355;-70
2021/06/17 05:54:52;;;;;;;5.98;4.45;;;;;;;21.76;63.54;99774.48;129699;1092;113769;-69
2021/06/17 05:57:21;;;;;;;7.28;4.68;;;;;;;21.75;63.59;99773.67;129780;1093;22569;-70
2021/06/17 05:59:49;;;;;;;7.20;4.03;;;;;;;21.75;63.45;99762.58;129744;1093;114524;-70
2021/06/17 06:02:23;;;;;;;7.98;4.35;;;;;;;21.77;63.94;99768.62;129798;1093;22602;-70
2021/06/17 06:04:52;;;;;;;9.73;4.35;;;;;;;21.82;63.89;99781.48;129836;1093;23080;-70
2021/06/17 06:07:20;;;;;;;7.95;4.05;;;;;;;21.85;63.73;99766.97;129723;1092;113620;-69
2021/06/17 06:09:49;;;;;;;6.33;4.43;;;;;;;21.87;63.90;99773.02;129788;1093;23350;-70
2021/06/17 06:12:22;;;;;;;8.78;4.78;;;;;;;21.92;64.07;99778.41;129669;1092;114227;-70
2021/06/17 06:14:50;;;;;;;11.60;4.85;;;;;;;21.98;63.83;99777.08;129845;1093;23438;-69
2021/06/17 06:17:19;;;;;;;6.23;3.95;;;;;;;22.04;63.64;99778.59;129717;1092;114413;-70
2021/06/17 06:19:47;;;;;;;12.20;4.13;;;;;;;22.10;63.69;99777.26;129788;1092;22554;-69
2021/06/17 06:22:16;;;;;;;7.80;4.40;;;;;;;22.17;63.50;99777.59;129781;1093;23317;-69
2021/06/17 06:24:44;;;;;;;6.40;3.83;;;;;;;22.25;63.42;99780.67;129786;1093;114314;-73
2021/06/17 06:27:13;;;;;;;5.50;4.00;;;;;;;22.30;63.80;99784.09;129788;1093;23452;-70
2021/06/17 06:29:42;;;;;;;6.73;3.98;;;;;;;22.39;63.47;99779.33;129610;1093;113855;-70
2021/06/17 06:32:11;;;;;;;10.85;4.03;;;;;;;22.49;62.67;99775.41;129777;1093;22583;-69
2021/06/17 06:34:39;;;;;;;9.08;4.43;;;;;;;22.54;62.54;99772.44;129798;1093;22546;-70
2021/06/17 06:37:08;;;;;;;9.05;3.95;;;;;;;22.58;62.10;99776.19;129690;1092;114056;-62
2021/06/17 06:39:36;;;;;;;9.90;4.45;;;;;;;22.62;61.95;99774.39;129815;1093;22597;-62
2021/06/17 06:42:06;;;;;;;10.20;4.25;;;;;;;22.65;62.07;99767.36;129682;1092;113617;-63
2021/06/17 06:44:34;;;;;;;10.40;4.35;;;;;;;22.70;62.79;99767.97;129802;1093;23652;-62
2021/06/17 06:47:03;;;;;;;11.13;4.65;;;;;;;22.78;62.47;99774.69;129708;1092;114071;-63
2021/06/17 06:49:32;;;;;;;7.73;4.53;;;;;;;22.84;61.67;99773.34;129839;1092;22593;-65
2021/06/17 06:52:00;;;;;;;8.68;4.08;;;;;;;22.86;61.73;99769.08;129775;1093;22545;-62
2021/06/17 06:54:29;;;;;;;6.48;4.33;;;;;;;22.89;61.43;99773.16;129663;1093;113799;-61
2021/06/17 06:56:57;;;;;;;10.35;4.00;;;;;;;22.91;61.69;99770.88;129827;1092;22602;-62
2021/06/17 06:59:26;;;;;;;11.10;4.18;;;;;;;22.94;61.59;99772.17;129641;1093;114136;-60
2021/06/17 07:01:54;;;;;;;5.65;4.53;;;;;;;22.96;61.15;99772.63;129799;1093;22584;-60
2021/06/17 07:04:25;;;;;;;8.58;4.33;;;;;;;22.97;61.23;99771.48;129784;1093;22590;-60
2021/06/17 07:06:53;;;;;;;7.25;4.70;;;;;;;22.99;61.15;99771.97;129714;1093;113801;-62
2021/06/17 07:09:22;;;;;;;10.93;4.05;;;;;;;23.05;61.28;99773.42;129776;1093;23439;-63
2021/06/17 07:11:56;;;;;;;6.50;3.75;;;;;;;23.10;60.85;99779.59;129675;1093;114953;-63
2021/06/17 07:14:25;;;;;;;10.93;4.40;;;;;;;23.15;60.44;99771.06;129770;1092;22737;-63
2021/06/17 07:16:53;;;;;;;8.13;4.78;;;;;;;23.19;60.66;99779.56;129793;1092;22579;-63
2021/06/17 07:19:22;;;;;;;8.65;4.40;;;;;;;23.23;60.59;99786.05;129666;1093;113967;-63
2021/06/17 07:21:51;;;;;;;7.63;3.85;;;;;;;23.29;60.60;99779.16;129820;1093;23076;-63
2021/06/17 07:24:20;;;;;;;6.73;4.50;;;;;;;23.36;60.87;99784.20;129695;1093;114222;-63
2021/06/17 07:26:51;;;;;;;6.53;4.28;;;;;;;23.43;60.82;99784.47;129854;1092;23126;-63
2021/06/17 07:29:20;;;;;;;9.00;3.75;;;;;;;23.49;60.13;99785.92;129693;1093;114272;-63
2021/06/17 07:31:50;;;;;;;6.38;4.23;;;;;;;23.54;59.78;99791.30;129866;1092;23178;-63
2021/06/17 07:34:21;;;;;;;10.15;4.30;;;;;;;23.58;60.14;99793.08;129820;1091;23147;-63
2021/06/17 07:36:51;;;;;;;6.95;4.30;;;;;;;23.64;59.40;99795.67;126593;1093;113402;-62
2021/06/17 07:39:19;;;;;;;8.85;4.40;;;;;;;23.68;59.84;99797.41;129766;1093;23760;-61
2021/06/17 07:41:48;;;;;;;8.28;4.20;;;;;;;23.73;59.40;99785.28;129755;1092;114421;-61
2021/06/17 07:44:16;;;;;;;6.93;3.83;;;;;;;23.77;59.46;99797.37;129808;1092;23520;-61
2021/06/17 07:46:45;;;;;;;8.83;3.88;;;;;;;23.80;58.94;99791.13;129863;1093;22538;-61
2021/06/17 07:49:13;;;;;;;5.05;4.15;;;;;;;23.83;59.32;99801.56;129749;1093;113936;-61
2021/06/17 07:51:41;;;;;;;7.33;4.28;;;;;;;23.86;59.49;99798.10;129859;1092;22580;-61
2021/06/17 07:54:10;;;;;;;10.60;3.88;;;;;;;23.87;59.04;99799.73;129731;1093;113913;-61
2021/06/17 07:56:39;;;;;;;4.33;3.70;;;;;;;23.90;59.50;99799.06;129785;1093;22623;-60
2021/06/17 07:59:08;;;;;;;6.95;4.00;;;;;;;23.92;59.20;99805.92;129671;1093;113883;-61
2021/06/17 08:01:36;;;;;;;15.03;4.65;;;;;;;23.94;59.18;99819.50;129811;1092;22546;-61
2021/06/17 08:04:07;;;;;;;5.98;4.58;;;;;;;23.96;58.51;99811.60;129781;1093;22553;-62
2021/06/17 08:06:35;;;;;;;8.85;5.05;;;;;;;23.97;58.07;99811.27;126954;1092;113902;-62
2021/06/17 08:09:04;;;;;;;8.38;4.58;;;;;;;24.00;58.50;99814.52;125466;1093;24193;-63
2021/06/17 08:11:34;;;;;;;6.38;3.90;;;;;;;24.04;58.85;99830.22;129911;1093;114537;-64
2021/06/17 08:14:25;;;;;;;6.75;3.90;;;;;;;24.08;58.03;99814.47;130060;1092;23286;-64
2021/06/17 08:16:54;;;;;;;6.28;4.00;;;;;;;24.11;58.21;99818.52;130067;1091;23143;-63
2021/06/17 08:19:32;;;;;;;7.23;4.35;;;;;;;24.12;58.75;99809.83;129975;1092;114853;-63
2021/06/17 08:22:03;;;;;;;6.23;3.97;;;;;;;24.19;59.04;99814.86;130056;1092;23416;-63
2021/06/17 08:24:33;;;;;;;8.18;4.43;;;;;;;24.25;58.12;99811.53;130002;1092;114188;-64
2021/06/17 08:27:02;;;;;;;8.18;4.40;;;;;;;24.32;58.24;99813.78;130054;1093;22562;-62
2021/06/17 08:29:31;;;;;;;9.58;4.65;;;;;;;24.41;58.00;99810.90;129980;1093;114783;-63
2021/06/17 08:31:59;;;;;;;13.15;4.33;;;;;;;24.47;58.65;99809.53;130080;1093;22683;-63
2021/06/17 08:34:29;;;;;;;6.30;4.35;;;;;;;24.53;58.61;99808.96;130125;1093;23239;-64
2021/06/17 08:36:57;;;;;;;5.78;4.10;;;;;;;24.60;58.15;99808.41;129962;1093;113650;-64
2021/06/17 08:42:34;;;;;;;8.10;4.23;;;;;;;24.64;57.46;99817.72;124856;1093;114653;-66
2021/06/17 08:45:05;;;;;;;9.53;4.08;;;;;;;24.65;57.98;99810.98;125059;1093;23626;-66
2021/06/17 08:47:35;;;;;;;8.55;4.45;;;;;;;24.68;57.83;99813.06;124892;1093;119098;-63
2021/06/17 08:50:09;;;;;;;10.45;4.90;;;;;;;24.73;58.09;99815.64;124998;1093;22742;-64
2021/06/17 08:52:43;;;;;;;7.75;4.13;;;;;;;24.79;58.14;99811.48;129758;1093;23251;-64
2021/06/17 08:55:20;;;;;;;6.28;3.88;;;;;;;24.86;57.83;99817.28;129719;1093;113970;-66
2021/06/17 08:57:50;;;;;;;12.18;3.83;;;;;;;24.94;57.45;99818.39;129782;1093;23636;-65
2021/06/17 09:00:23;;;;;;;9.15;3.80;;;;;;;24.97;56.56;99812.09;129706;1093;113963;-65
2021/06/17 09:02:56;;;;;;;4.83;3.55;;;;;;;24.99;56.98;99816.17;129796;1093;22582;-65
2021/06/17 09:05:24;;;;;;;7.40;3.53;;;;;;;25.03;55.70;99819.09;129708;1093;113968;-65
2021/06/17 09:07:53;;;;;;;7.38;4.10;;;;;;;25.04;56.19;99817.92;129779;1093;22641;-65
2021/06/17 09:10:21;;;;;;;7.28;4.10;;;;;;;25.03;55.26;99830.23;129837;1093;22606;-65
2021/06/17 09:12:52;;;;;;;8.85;4.75;;;;;;;24.97;55.46;99824.06;129655;1092;113736;-65
2021/06/17 09:15:55;;;;;;;5.78;4.23;;;;;;;24.92;56.14;99829.03;129809;1092;22567;-66
2021/06/17 09:18:38;;;;;;;5.33;3.28;;;;;;;24.91;55.43;99811.50;129228;1095;115262;-66
2021/06/17 09:21:08;;;;;;;6.35;3.85;;;;;;;25.03;54.22;99807.94;129388;1096;22667;-66
2021/06/17 09:23:37;;;;;;;4.35;3.60;;;;;;;25.14;54.05;99805.48;129252;1096;114031;-66
2021/06/17 09:26:12;;;;;;;38.10;4.50;;;;;;;25.25;53.10;99817.80;129348;1096;23164;-66
2021/06/17 09:29:05;;;;;;;11.97;3.60;;;;;;;25.38;51.94;99822.24;129344;1095;22629;-64
2021/06/17 09:31:34;;;;;;;14.75;3.58;;;;;;;25.47;51.79;99814.55;129257;1096;114364;-66
2021/06/17 09:34:06;;;;;;;16.58;3.85;;;;;;;25.55;52.47;99821.16;129277;1096;22592;-66
2021/06/17 09:36:35;;;;;;;15.00;3.95;;;;;;;25.64;52.65;99827.48;129189;1096;113940;-66
2021/06/17 09:39:16;;;;;;;16.98;3.50;;;;;;;25.69;51.17;99825.23;129333;1096;22654;-66
2021/06/17 09:41:47;;;;;;;6.88;3.30;;;;;;;25.66;50.80;99823.17;129159;1096;115126;-66
2021/06/17 09:44:37;;;;;;;3.60;3.10;;;;;;;25.57;51.10;99816.05;129290;1095;22732;-65
2021/06/17 09:50:27;;;;;;;9.10;3.57;;;;;;;25.47;51.89;99817.34;125461;1093;26671;-64
2021/06/17 09:52:56;;;;;;;6.98;3.68;;;;;;;25.48;52.78;99813.39;130001;1093;22557;-66
2021/06/17 09:55:44;;;;;;;9.98;3.73;;;;;;;25.55;52.50;99815.58;129755;1093;113116;-65
2021/06/17 09:58:34;;;;;;;7.28;3.78;;;;;;;25.64;52.90;99807.94;129835;1093;22571;-65
2021/06/17 10:01:04;;;;;;;6.70;3.28;;;;;;;25.68;51.77;99806.08;129652;1093;113534;-64
2021/06/17 10:03:32;;;;;;;8.63;3.38;;;;;;;25.66;52.08;99813.98;129802;1093;22645;-65
2021/06/17 10:06:02;;;;;;;7.25;3.73;;;;;;;25.64;52.49;99817.13;129613;1093;113640;-61
2021/06/17 10:08:30;;;;;;;11.55;3.25;;;;;;;25.65;52.45;99799.22;129752;1095;23808;-65
2021/06/17 10:10:58;;;;;;;13.85;4.20;;;;;;;25.72;52.56;99804.19;129751;1093;23291;-66
2021/06/17 10:13:27;;;;;;;17.18;4.28;;;;;;;25.79;52.60;99809.19;129694;1093;113740;-66
2021/06/17 10:15:55;;;;;;;7.53;4.85;;;;;;;25.86;52.71;99817.77;129774;1093;22525;-69
2021/06/17 10:18:23;;;;;;;7.70;3.55;;;;;;;25.88;52.04;99810.67;129678;1092;115160;-68
2021/06/17 10:20:52;;;;;;;5.10;3.55;;;;;;;25.88;52.03;99812.64;129749;1093;23562;-66
2021/06/17 10:23:20;;;;;;;5.28;3.55;;;;;;;25.88;52.27;99798.69;129776;1093;23174;-69
2021/06/17 10:25:49;;;;;;;5.93;3.50;;;;;;;25.91;52.48;99807.17;129581;1094;114059;-68
2021/06/17 10:28:39;;;;;;;6.48;3.38;;;;;;;25.95;51.51;99802.52;129747;1093;22578;-69
2021/06/17 10:31:09;;;;;;;13.05;3.58;;;;;;;25.96;51.24;99806.13;129618;1092;113593;-69
2021/06/17 10:33:38;;;;;;;4.95;3.70;;;;;;;25.95;51.17;99807.29;129776;1093;22589;-70
2021/06/17 10:36:22;;;;;;;8.30;3.50;;;;;;;25.91;51.74;99809.97;129697;1093;113423;-69
2021/06/17 10:39:11;;;;;;;5.70;3.53;;;;;;;25.88;52.75;99802.30;129814;1092;22581;-68
2021/06/17 10:41:51;;;;;;;7.20;3.60;;;;;;;25.87;51.83;99799.84;129797;1093;22554;-69
2021/06/17 10:44:49;;;;;;;5.80;3.58;;;;;;;25.79;51.63;99798.84;129725;1092;113669;-69
2021/06/17 10:47:45;;;;;;;15.85;3.65;;;;;;;25.74;52.53;99804.66;129765;1093;22618;-69
2021/06/17 10:50:14;;;;;;;6.95;3.68;;;;;;;25.77;52.70;99797.56;129715;1093;113868;-70
2021/06/17 10:52:44;;;;;;;9.43;3.18;;;;;;;25.85;53.37;99789.03;129767;1093;22636;-69
2021/06/17 10:55:32;;;;;;;7.28;3.80;;;;;;;25.99;52.16;99791.43;129719;1092;113595;-69
2021/06/17 10:58:05;;;;;;;6.43;3.65;;;;;;;26.12;51.52;99794.98;129693;1095;22580;-69
2021/06/17 11:00:42;;;;;;;6.58;3.08;;;;;;;26.14;51.32;99792.66;129699;1093;113812;-68
2021/06/17 11:03:10;;;;;;;9.75;3.25;;;;;;;26.06;50.85;99783.27;129741;1093;22684;-68
2021/06/17 11:05:41;;;;;;;7.10;3.38;;;;;;;25.97;50.70;99799.38;129762;1093;22560;-67
2021/06/17 11:08:22;;;;;;;9.23;4.05;;;;;;;25.93;51.59;99790.89;129671;1093;113600;-66
2021/06/17 11:10:58;;;;;;;6.35;3.80;;;;;;;25.95;51.80;99782.97;129793;1093;22566;-69
2021/06/17 11:13:36;;;;;;;28.48;4.78;;;;;;;26.01;51.54;99772.34;129667;1093;113804;-69
2021/06/17 11:16:14;;;;;;;6.05;3.63;;;;;;;26.06;51.37;99766.52;129793;1096;22622;-70
2021/06/17 11:21:27;;;;;;;5.58;3.28;;;;;;;26.10;51.40;99759.06;129878;1093;22613;-69
2021/06/17 11:24:20;;;;;;;4.43;3.18;;;;;;;26.15;51.33;99761.58;130098;1093;22581;-69
2021/06/17 11:26:51;;;;;;;7.50;3.43;;;;;;;26.21;50.85;99759.36;130066;1093;22685;-70
2021/06/17 11:29:29;;;;;;;4.38;2.80;;;;;;;26.29;50.18;99750.83;130047;1092;22668;-69
2021/06/17 11:31:57;;;;;;;9.05;4.43;;;;;;;26.33;50.65;99754.55;129997;1092;113648;-69
2021/06/17 11:34:32;;;;;;;7.70;3.75;;;;;;;26.29;50.18;99748.04;130131;1093;22545;-70
2021/06/17 11:37:04;;;;;;;8.83;3.33;;;;;;;26.23;50.64;99734.67;129999;1093;113695;-70
2021/06/17 11:39:36;;;;;;;11.73;4.30;;;;;;;26.21;51.17;99754.58;130091;1092;23581;-69
2021/06/17 11:42:06;;;;;;;11.08;3.88;;;;;;;26.23;50.78;99751.44;130056;1092;22661;-69
2021/06/17 11:44:34;;;;;;;9.55;3.78;;;;;;;26.25;50.88;99752.70;130023;1093;114184;-69
2021/06/17 11:47:09;;;;;;;10.18;4.10;;;;;;;26.28;50.76;99735.23;130066;1093;22578;-69
2021/06/17 11:49:40;;;;;;;6.58;3.28;;;;;;;26.30;50.46;99735.70;129967;1093;113897;-69
2021/06/17 11:52:15;;;;;;;11.80;4.00;;;;;;;26.34;50.16;99747.79;130086;1093;22560;-69
2021/06/17 11:54:49;;;;;;;23.13;4.50;;;;;;;26.36;50.37;99756.63;129977;1093;114010;-69
2021/06/17 11:57:25;;;;;;;4.60;3.70;;;;;;;26.37;49.28;99752.67;129813;1093;22694;-69